Overview Statistics Trail Chart Weather Telemetry Raw packets
 

This is the latest recevied weather packets stored in our database for station/object 4S6DRJ-13. If no packets are shown the sender has not sent any weather packets the latest 10 day(s).

<< 155 156 157 158 159 160 161 >>
Time Temp. Humidity Pressure Rain* Wind** Luminosity Snow
1788230145 29.44° C 78% 1009 hPa 0 mm 0.89 m/s, 261° 557 W/m² -
1788230084 29.44° C 78% 1008.8 hPa 0 mm 0.45 m/s, 154° 509 W/m² -
1788230023 29.44° C 78% 1009 hPa 0 mm 1.34 m/s, 146° 453 W/m² -
1788229961 29.44° C 78% 1009.1 hPa 0 mm 1.79 m/s, 228° 341 W/m² -
1788229901 29.44° C 78% 1009 hPa 0 mm 1.34 m/s, 336° 457 W/m² -
1788229840 29.44° C 79% 1008.9 hPa 0 mm 0.89 m/s, 202° 466 W/m² -
1788229779 29.44° C 79% 1009 hPa 0 mm 1.34 m/s, 265° 423 W/m² -
1788229718 29.44° C 79% 1008.9 hPa 0 mm 0.89 m/s, 266° 415 W/m² -
1788229657 29.44° C 79% 1008.9 hPa 0 mm 0.89 m/s, 240° 413 W/m² -
1788229596 29.44° C 79% 1008.8 hPa 0 mm 0.45 m/s, 217° 404 W/m² -
1788229535 29.44° C 78% 1008.9 hPa 0 mm 1.34 m/s, 320° 381 W/m² -
1788229474 29.44° C 79% 1008.9 hPa 0 mm 0.89 m/s, 298° 332 W/m² -
1788229413 29.44° C 79% 1008.8 hPa 0 mm 0.89 m/s, 340° 301 W/m² -
1788229351 29.44° C 78% 1008.8 hPa 0 mm 0.89 m/s, 256° 304 W/m² -
1788229291 29.44° C 79% 1008.8 hPa 0 mm 0.89 m/s, 248° 294 W/m² -
1788229230 29.44° C 79% 1008.7 hPa 0 mm 0.89 m/s, 241° 270 W/m² -
1788229169 28.89° C 79% 1008.7 hPa 0 mm 0.45 m/s, 271° 248 W/m² -
1788229109 28.89° C 79% 1008.8 hPa 0 mm 0.89 m/s, 224° 237 W/m² -
1788229047 28.89° C 79% 1008.7 hPa 0 mm 0.45 m/s, 230° 227 W/m² -
1788228987 28.89° C 79% 1008.8 hPa 0 mm 0.89 m/s, 223° 215 W/m² -
1788228926 28.89° C 79% 1008.7 hPa 0 mm 1.79 m/s, 312° 209 W/m² -
1788228864 28.89° C 79% 1008.5 hPa 0 mm 1.34 m/s, 145° 200 W/m² -
1788228816 28.89° C 79% 1008.7 hPa 0 mm 2.24 m/s, 330° 192 W/m² -
1788228742 28.89° C 80% 1008.6 hPa 0 mm 1.79 m/s, 326° 187 W/m² -
1788228681 28.89° C 81% 1008.6 hPa 0 mm 1.79 m/s, 285° 198 W/m² -

* Rain latest hour (hover to see other rain measurements)
** Current wind speed in m/s (hover to see current wind gust speed)